sensor_id;sensor_type;location;lat;lon;timestamp;pressure;altitude;pressure_sealevel;temperature;humidity
77702;BME280;66868;42.708;23.404;2023-06-22T00:01:48;95597.94;;;19.45;80.77
77702;BME280;66868;42.708;23.404;2023-06-22T00:04:13;95591.94;;;19.35;80.77
77702;BME280;66868;42.708;23.404;2023-06-22T00:06:38;95590.44;;;19.23;80.66
77702;BME280;66868;42.708;23.404;2023-06-22T00:09:04;95598.41;;;19.29;80.47
77702;BME280;66868;42.708;23.404;2023-06-22T00:11:29;95602.72;;;19.29;80.73
77702;BME280;66868;42.708;23.404;2023-06-22T00:13:58;95581.91;;;19.22;79.89
77702;BME280;66868;42.708;23.404;2023-06-22T00:16:23;95594.22;;;19.28;79.75
77702;BME280;66868;42.708;23.404;2023-06-22T00:18:48;95595.72;;;19.31;79.59
77702;BME280;66868;42.708;23.404;2023-06-22T00:21:14;95596.97;;;19.36;79.21
77702;BME280;66868;42.708;23.404;2023-06-22T00:23:39;95584.94;;;19.37;79.21
77702;BME280;66868;42.708;23.404;2023-06-22T00:26:06;95583.56;;;19.42;78.89
77702;BME280;66868;42.708;23.404;2023-06-22T00:28:32;95567.63;;;19.39;78.90
77702;BME280;66868;42.708;23.404;2023-06-22T00:30:57;95559.78;;;19.40;78.57
77702;BME280;66868;42.708;23.404;2023-06-22T00:33:22;95577.13;;;19.48;78.28
77702;BME280;66868;42.708;23.404;2023-06-22T00:35:48;95579.03;;;19.46;78.29
77702;BME280;66868;42.708;23.404;2023-06-22T00:38:13;95566.97;;;19.37;78.58
77702;BME280;66868;42.708;23.404;2023-06-22T00:40:39;95586.47;;;19.49;78.83
77702;BME280;66868;42.708;23.404;2023-06-22T00:43:05;95577.41;;;19.45;79.11
77702;BME280;66868;42.708;23.404;2023-06-22T00:45:30;95563.34;;;19.49;79.15
77702;BME280;66868;42.708;23.404;2023-06-22T00:47:57;95562.13;;;19.53;79.37
77702;BME280;66868;42.708;23.404;2023-06-22T00:50:24;95564.28;;;19.48;79.48
77702;BME280;66868;42.708;23.404;2023-06-22T00:52:52;95593.91;;;19.62;79.84
77702;BME280;66868;42.708;23.404;2023-06-22T00:55:19;95563.63;;;19.46;79.09
77702;BME280;66868;42.708;23.404;2023-06-22T00:57:46;95543.03;;;19.36;79.72
77702;BME280;66868;42.708;23.404;2023-06-22T01:00:13;95576.09;;;19.60;79.82
77702;BME280;66868;42.708;23.404;2023-06-22T01:02:40;95577.56;;;19.63;79.69
77702;BME280;66868;42.708;23.404;2023-06-22T01:05:06;95554.28;;;19.45;79.47
77702;BME280;66868;42.708;23.404;2023-06-22T01:07:41;95569.03;;;19.53;80.04
77702;BME280;66868;42.708;23.404;2023-06-22T01:10:49;95591.22;;;19.63;80.28
77702;BME280;66868;42.708;23.404;2023-06-22T01:13:28;95584.47;;;19.62;80.19
77702;BME280;66868;42.708;23.404;2023-06-22T01:16:02;95593.66;;;19.65;80.50
77702;BME280;66868;42.708;23.404;2023-06-22T01:18:31;95595.00;;;19.59;80.36
77702;BME280;66868;42.708;23.404;2023-06-22T01:20:58;95587.94;;;19.52;79.92
77702;BME280;66868;42.708;23.404;2023-06-22T01:28:47;95586.59;;;19.48;81.11
77702;BME280;66868;42.708;23.404;2023-06-22T01:31:18;95586.75;;;19.46;81.12
77702;BME280;66868;42.708;23.404;2023-06-22T01:33:48;95592.81;;;19.45;81.04
77702;BME280;66868;42.708;23.404;2023-06-22T01:36:16;95588.94;;;19.30;81.01
77702;BME280;66868;42.708;23.404;2023-06-22T01:38:42;95588.28;;;19.28;81.10
77702;BME280;66868;42.708;23.404;2023-06-22T01:41:08;95592.72;;;19.26;81.41
77702;BME280;66868;42.708;23.404;2023-06-22T01:43:35;95590.94;;;19.17;81.44
77702;BME280;66868;42.708;23.404;2023-06-22T01:46:02;95595.34;;;18.95;82.76
77702;BME280;66868;42.708;23.404;2023-06-22T01:48:28;95595.34;;;18.95;82.56
77702;BME280;66868;42.708;23.404;2023-06-22T01:50:54;95591.09;;;18.85;83.21
77702;BME280;66868;42.708;23.404;2023-06-22T01:53:24;95596.66;;;18.69;84.18
77702;BME280;66868;42.708;23.404;2023-06-22T01:55:49;95598.41;;;18.69;83.20
77702;BME280;66868;42.708;23.404;2023-06-22T01:58:19;95591.09;;;18.64;83.52
77702;BME280;66868;42.708;23.404;2023-06-22T02:00:50;95583.50;;;18.53;84.22
77702;BME280;66868;42.708;23.404;2023-06-22T02:03:19;95591.09;;;18.64;83.58
77702;BME280;66868;42.708;23.404;2023-06-22T02:05:52;95579.78;;;18.46;84.09
77702;BME280;66868;42.708;23.404;2023-06-22T02:08:22;95609.75;;;18.66;84.52
77702;BME280;66868;42.708;23.404;2023-06-22T02:10:52;95610.31;;;18.70;84.70
77702;BME280;66868;42.708;23.404;2023-06-22T02:13:19;95603.25;;;18.62;84.71
77702;BME280;66868;42.708;23.404;2023-06-22T02:15:46;95599.09;;;18.50;85.34
77702;BME280;66868;42.708;23.404;2023-06-22T02:18:13;95599.84;;;18.41;84.78
77702;BME280;66868;42.708;23.404;2023-06-22T02:20:39;95602.09;;;18.14;86.13
77702;BME280;66868;42.708;23.404;2023-06-22T02:23:06;95582.88;;;17.87;87.19
77702;BME280;66868;42.708;23.404;2023-06-22T02:25:32;95598.50;;;17.73;88.24
77702;BME280;66868;42.708;23.404;2023-06-22T02:27:58;95593.03;;;17.78;87.70
77702;BME280;66868;42.708;23.404;2023-06-22T02:30:23;95560.13;;;17.62;87.05
77702;BME280;66868;42.708;23.404;2023-06-22T02:32:49;95591.00;;;17.92;86.42
77702;BME280;66868;42.708;23.404;2023-06-22T02:35:14;95592.63;;;17.93;85.85
77702;BME280;66868;42.708;23.404;2023-06-22T02:37:40;95599.81;;;17.99;85.69
77702;BME280;66868;42.708;23.404;2023-06-22T02:40:09;95583.22;;;17.83;85.98
77702;BME280;66868;42.708;23.404;2023-06-22T02:42:36;95598.50;;;17.73;87.63
77702;BME280;66868;42.708;23.404;2023-06-22T02:45:02;95595.25;;;17.71;87.32
77702;BME280;66868;42.708;23.404;2023-06-22T02:47:27;95605.28;;;17.74;86.78
77702;BME280;66868;42.708;23.404;2023-06-22T02:49:52;95597.63;;;17.52;88.79
77702;BME280;66868;42.708;23.404;2023-06-22T02:52:18;95603.78;;;17.60;87.94
77702;BME280;66868;42.708;23.404;2023-06-22T02:54:43;95597.84;;;17.49;88.92
77702;BME280;66868;42.708;23.404;2023-06-22T02:57:11;95578.13;;;17.17;89.87
77702;BME280;66868;42.708;23.404;2023-06-22T02:59:39;95590.41;;;17.35;88.72
77702;BME280;66868;42.708;23.404;2023-06-22T03:02:06;95570.69;;;17.14;89.53
77702;BME280;66868;42.708;23.404;2023-06-22T03:04:31;95615.56;;;17.30;89.78
77702;BME280;66868;42.708;23.404;2023-06-22T03:06:57;95574.41;;;17.10;89.87
77702;BME280;66868;42.708;23.404;2023-06-22T03:09:26;95566.59;;;17.12;89.15
77702;BME280;66868;42.708;23.404;2023-06-22T03:11:53;95599.00;;;17.45;89.13
77702;BME280;66868;42.708;23.404;2023-06-22T03:14:18;95619.50;;;17.45;89.71
77702;BME280;66868;42.708;23.404;2023-06-22T03:16:44;95609.84;;;17.26;90.21
77702;BME280;66868;42.708;23.404;2023-06-22T03:19:09;95623.50;;;17.15;91.31
77702;BME280;66868;42.708;23.404;2023-06-22T03:21:36;95633.16;;;17.01;91.90
77702;BME280;66868;42.708;23.404;2023-06-22T03:24:04;95619.16;;;16.94;92.19
77702;BME280;66868;42.708;23.404;2023-06-22T03:26:29;95640.91;;;16.88;93.17
77702;BME280;66868;42.708;23.404;2023-06-22T03:28:55;95632.53;;;16.86;93.57
77702;BME280;66868;42.708;23.404;2023-06-22T03:31:21;95632.31;;;16.89;93.53
77702;BME280;66868;42.708;23.404;2023-06-22T03:33:47;95638.69;;;16.84;94.47
77702;BME280;66868;42.708;23.404;2023-06-22T03:36:14;95637.41;;;16.89;94.03
77702;BME280;66868;42.708;23.404;2023-06-22T03:38:41;95637.44;;;17.00;92.95
77702;BME280;66868;42.708;23.404;2023-06-22T03:41:06;95611.50;;;16.83;93.86
77702;BME280;66868;42.708;23.404;2023-06-22T03:43:32;95636.59;;;17.11;92.71
77702;BME280;66868;42.708;23.404;2023-06-22T03:45:58;95643.72;;;17.18;92.65
77702;BME280;66868;42.708;23.404;2023-06-22T03:48:23;95647.66;;;17.11;93.66
77702;BME280;66868;42.708;23.404;2023-06-22T03:50:48;95636.97;;;17.06;94.07
77702;BME280;66868;42.708;23.404;2023-06-22T03:53:14;95646.75;;;17.01;95.12
77702;BME280;66868;42.708;23.404;2023-06-22T03:55:48;95652.19;;;17.08;94.99
77702;BME280;66868;42.708;23.404;2023-06-22T03:58:14;95656.75;;;17.04;95.94
77702;BME280;66868;42.708;23.404;2023-06-22T04:00:39;95665.34;;;17.03;95.56
77702;BME280;66868;42.708;23.404;2023-06-22T04:03:05;95649.28;;;16.90;95.32
77702;BME280;66868;42.708;23.404;2023-06-22T04:05:32;95655.00;;;16.83;94.86
77702;BME280;66868;42.708;23.404;2023-06-22T04:07:58;95655.53;;;16.75;94.69
77702;BME280;66868;42.708;23.404;2023-06-22T04:10:23;95664.41;;;16.82;94.84
77702;BME280;66868;42.708;23.404;2023-06-22T04:12:48;95644.63;;;16.84;94.45
77702;BME280;66868;42.708;23.404;2023-06-22T04:15:14;95656.03;;;17.02;93.61
77702;BME280;66868;42.708;23.404;2023-06-22T04:17:39;95636.16;;;16.95;93.91
77702;BME280;66868;42.708;23.404;2023-06-22T04:20:05;95652.78;;;17.00;93.44
77702;BME280;66868;42.708;23.404;2023-06-22T04:22:31;95634.66;;;17.03;92.19
77702;BME280;66868;42.708;23.404;2023-06-22T04:24:57;95640.81;;;17.12;92.61
77702;BME280;66868;42.708;23.404;2023-06-22T04:27:22;95634.63;;;17.26;91.62
77702;BME280;66868;42.708;23.404;2023-06-22T04:29:48;95625.78;;;17.30;90.83
77702;BME280;66868;42.708;23.404;2023-06-22T04:32:17;95640.06;;;17.54;90.06
77702;BME280;66868;42.708;23.404;2023-06-22T04:34:43;95621.56;;;17.62;89.22
77702;BME280;66868;42.708;23.404;2023-06-22T04:37:08;95640.16;;;17.86;88.57
77702;BME280;66868;42.708;23.404;2023-06-22T04:39:34;95619.72;;;17.75;89.18
77702;BME280;66868;42.708;23.404;2023-06-22T04:41:59;95627.13;;;17.78;89.46
77702;BME280;66868;42.708;23.404;2023-06-22T04:44:25;95636.47;;;17.79;89.48
77702;BME280;66868;42.708;23.404;2023-06-22T04:46:57;95634.56;;;17.92;90.12
77702;BME280;66868;42.708;23.404;2023-06-22T04:49:27;95636.91;;;17.84;91.23
77702;BME280;66868;42.708;23.404;2023-06-22T04:52:00;95629.59;;;17.80;91.74
77702;BME280;66868;42.708;23.404;2023-06-22T04:54:26;95657.34;;;17.95;91.50
77702;BME280;66868;42.708;23.404;2023-06-22T04:56:52;95649.94;;;17.92;91.45
77702;BME280;66868;42.708;23.404;2023-06-22T04:59:29;95665.25;;;18.03;91.46
77702;BME280;66868;42.708;23.404;2023-06-22T05:01:59;95660.16;;;17.92;91.05
77702;BME280;66868;42.708;23.404;2023-06-22T05:04:26;95654.22;;;17.92;91.62
77702;BME280;66868;42.708;23.404;2023-06-22T05:06:57;95652.69;;;18.00;90.77
77702;BME280;66868;42.708;23.404;2023-06-22T05:09:23;95660.53;;;18.20;90.09
77702;BME280;66868;42.708;23.404;2023-06-22T05:11:50;95642.72;;;18.18;89.48
77702;BME280;66868;42.708;23.404;2023-06-22T05:14:15;95642.94;;;18.26;89.76
77702;BME280;66868;42.708;23.404;2023-06-22T05:16:41;95644.38;;;18.40;88.83
77702;BME280;66868;42.708;23.404;2023-06-22T05:19:07;95658.31;;;18.47;89.24
77702;BME280;66868;42.708;23.404;2023-06-22T05:21:33;95661.53;;;18.60;88.74
77702;BME280;66868;42.708;23.404;2023-06-22T05:23:58;95665.88;;;18.80;87.48
77702;BME280;66868;42.708;23.404;2023-06-22T05:26:34;95660.66;;;18.91;86.95
77702;BME280;66868;42.708;23.404;2023-06-22T05:29:00;95661.03;;;19.08;86.68
77702;BME280;66868;42.708;23.404;2023-06-22T05:31:26;95674.34;;;19.22;86.06
77702;BME280;66868;42.708;23.404;2023-06-22T05:33:53;95670.84;;;19.33;86.40
77702;BME280;66868;42.708;23.404;2023-06-22T05:36:19;95671.50;;;19.46;85.77
77702;BME280;66868;42.708;23.404;2023-06-22T05:38:51;95655.81;;;19.49;85.49
77702;BME280;66868;42.708;23.404;2023-06-22T05:41:17;95673.44;;;19.63;84.84
77702;BME280;66868;42.708;23.404;2023-06-22T05:43:42;95688.59;;;19.76;85.02
77702;BME280;66868;42.708;23.404;2023-06-22T05:46:08;95685.63;;;19.80;84.15
77702;BME280;66868;42.708;23.404;2023-06-22T05:48:33;95693.50;;;19.89;83.20
77702;BME280;66868;42.708;23.404;2023-06-22T05:50:59;95688.63;;;19.85;82.00
77702;BME280;66868;42.708;23.404;2023-06-22T05:53:24;95679.47;;;19.93;81.74
77702;BME280;66868;42.708;23.404;2023-06-22T05:55:50;95691.13;;;20.06;81.30
77702;BME280;66868;42.708;23.404;2023-06-22T05:58:15;95670.13;;;19.92;81.82
77702;BME280;66868;42.708;23.404;2023-06-22T06:00:41;95678.91;;;19.99;81.95
77702;BME280;66868;42.708;23.404;2023-06-22T06:03:08;95683.81;;;20.02;82.10
77702;BME280;66868;42.708;23.404;2023-06-22T06:05:34;95675.44;;;20.19;81.48
77702;BME280;66868;42.708;23.404;2023-06-22T06:08:00;95675.19;;;20.32;81.11
77702;BME280;66868;42.708;23.404;2023-06-22T06:10:26;95663.97;;;20.42;80.46
77702;BME280;66868;42.708;23.404;2023-06-22T06:12:52;95685.75;;;20.57;79.52
77702;BME280;66868;42.708;23.404;2023-06-22T06:15:18;95663.53;;;20.56;79.29
77702;BME280;66868;42.708;23.404;2023-06-22T06:17:53;95626.16;;;20.62;78.47
77702;BME280;66868;42.708;23.404;2023-06-22T06:20:23;95571.78;;;20.38;77.79
77702;BME280;66868;42.708;23.404;2023-06-22T06:22:49;95678.88;;;21.24;77.29
77702;BME280;66868;42.708;23.404;2023-06-22T06:25:15;95663.94;;;21.27;76.48
77702;BME280;66868;42.708;23.404;2023-06-22T06:27:49;95674.72;;;21.50;75.45
77702;BME280;66868;42.708;23.404;2023-06-22T06:30:16;95674.38;;;21.63;75.10
77702;BME280;66868;42.708;23.404;2023-06-22T06:32:43;95674.03;;;21.75;75.18
77702;BME280;66868;42.708;23.404;2023-06-22T06:35:11;95676.69;;;21.93;73.62
77702;BME280;66868;42.708;23.404;2023-06-22T06:38:01;95672.28;;;22.03;73.53
77702;BME280;66868;42.708;23.404;2023-06-22T06:40:27;95660.13;;;22.13;73.38
77702;BME280;66868;42.708;23.404;2023-06-22T06:42:53;95665.16;;;22.32;72.88
77702;BME280;66868;42.708;23.404;2023-06-22T06:45:22;95675.47;;;22.50;72.67
77702;BME280;66868;42.708;23.404;2023-06-22T06:47:48;95630.41;;;22.44;72.45
77702;BME280;66868;42.708;23.404;2023-06-22T06:50:13;95668.84;;;22.91;72.25
77702;BME280;66868;42.708;23.404;2023-06-22T06:52:39;95664.00;;;23.14;71.65
77702;BME280;66868;42.708;23.404;2023-06-22T06:55:05;95661.84;;;23.35;70.27
77702;BME280;66868;42.708;23.404;2023-06-22T06:57:40;95653.22;;;23.52;70.34
77702;BME280;66868;42.708;23.404;2023-06-22T07:00:07;95653.59;;;23.65;69.61
77702;BME280;66868;42.708;23.404;2023-06-22T07:02:38;95661.75;;;23.87;69.04
77702;BME280;66868;42.708;23.404;2023-06-22T07:05:04;95655.13;;;23.92;68.75
77702;BME280;66868;42.708;23.404;2023-06-22T07:07:31;95643.84;;;24.01;67.74
77702;BME280;66868;42.708;23.404;2023-06-22T07:09:56;95661.31;;;24.15;67.71
77702;BME280;66868;42.708;23.404;2023-06-22T07:12:22;95664.94;;;24.23;67.70
77702;BME280;66868;42.708;23.404;2023-06-22T07:14:48;95671.09;;;24.30;67.28
77702;BME280;66868;42.708;23.404;2023-06-22T07:17:13;95664.63;;;24.34;66.91
77702;BME280;66868;42.708;23.404;2023-06-22T07:19:39;95653.16;;;24.36;66.67
77702;BME280;66868;42.708;23.404;2023-06-22T07:22:12;95662.06;;;24.50;67.27
77702;BME280;66868;42.708;23.404;2023-06-22T07:24:58;95656.22;;;24.64;67.74
77702;BME280;66868;42.708;23.404;2023-06-22T07:27:23;95661.72;;;24.69;66.92
77702;BME280;66868;42.708;23.404;2023-06-22T07:29:49;95647.16;;;24.60;64.52
77702;BME280;66868;42.708;23.404;2023-06-22T07:32:15;95658.31;;;24.77;64.06
77702;BME280;66868;42.708;23.404;2023-06-22T07:34:41;95649.09;;;24.66;64.25
77702;BME280;66868;42.708;23.404;2023-06-22T07:37:06;95663.34;;;24.86;66.21
77702;BME280;66868;42.708;23.404;2023-06-22T07:39:32;95670.47;;;24.92;66.26
77702;BME280;66868;42.708;23.404;2023-06-22T07:41:57;95633.84;;;24.79;66.19
77702;BME280;66868;42.708;23.404;2023-06-22T07:44:23;95662.34;;;25.03;65.81
77702;BME280;66868;42.708;23.404;2023-06-22T07:46:49;95667.22;;;24.98;66.19
77702;BME280;66868;42.708;23.404;2023-06-22T07:49:14;95662.34;;;25.03;66.12
77702;BME280;66868;42.708;23.404;2023-06-22T07:51:40;95656.34;;;25.03;66.67
77702;BME280;66868;42.708;23.404;2023-06-22T07:54:05;95656.22;;;24.96;65.83
77702;BME280;66868;42.708;23.404;2023-06-22T07:56:31;95640.16;;;25.09;65.75
77702;BME280;66868;42.708;23.404;2023-06-22T07:58:57;95656.75;;;25.39;65.19
77702;BME280;66868;42.708;23.404;2023-06-22T08:01:24;95654.81;;;25.41;64.46
77702;BME280;66868;42.708;23.404;2023-06-22T08:03:49;95655.56;;;25.58;65.14
77702;BME280;66868;42.708;23.404;2023-06-22T08:06:17;95654.78;;;25.57;65.33
77702;BME280;66868;42.708;23.404;2023-06-22T08:08:42;95629.22;;;25.30;66.08
77702;BME280;66868;42.708;23.404;2023-06-22T08:11:08;95656.72;;;25.55;65.39
77702;BME280;66868;42.708;23.404;2023-06-22T08:13:34;95645.06;;;25.51;65.75
77702;BME280;66868;42.708;23.404;2023-06-22T08:15:59;95626.94;;;25.43;66.30
77702;BME280;66868;42.708;23.404;2023-06-22T08:18:25;95637.94;;;25.45;64.40
77702;BME280;66868;42.708;23.404;2023-06-22T08:20:50;95626.63;;;25.30;64.03
77702;BME280;66868;42.708;23.404;2023-06-22T08:23:16;95633.31;;;25.24;65.21
77702;BME280;66868;42.708;23.404;2023-06-22T08:25:42;95622.81;;;25.18;65.81
77702;BME280;66868;42.708;23.404;2023-06-22T08:28:07;95630.03;;;25.38;64.64
77702;BME280;66868;42.708;23.404;2023-06-22T08:30:33;95634.38;;;25.54;65.13
77702;BME280;66868;42.708;23.404;2023-06-22T08:32:58;95631.09;;;25.60;65.45
77702;BME280;66868;42.708;23.404;2023-06-22T08:35:24;95627.34;;;25.71;64.55
77702;BME280;66868;42.708;23.404;2023-06-22T08:37:50;95625.81;;;25.76;64.44
77702;BME280;66868;42.708;23.404;2023-06-22T08:40:18;95632.56;;;25.93;64.00
77702;BME280;66868;42.708;23.404;2023-06-22T08:42:45;95638.50;;;26.02;63.98
77702;BME280;66868;42.708;23.404;2023-06-22T08:45:11;95642.38;;;26.06;63.74
77702;BME280;66868;42.708;23.404;2023-06-22T08:47:36;95625.75;;;25.92;64.66
77702;BME280;66868;42.708;23.404;2023-06-22T08:50:02;95635.84;;;26.10;65.05
77702;BME280;66868;42.708;23.404;2023-06-22T08:52:30;95626.63;;;26.08;63.97
77702;BME280;66868;42.708;23.404;2023-06-22T08:54:56;95625.91;;;25.91;65.38
77702;BME280;66868;42.708;23.404;2023-06-22T08:57:23;95622.69;;;25.89;64.59
77702;BME280;66868;42.708;23.404;2023-06-22T08:59:49;95621.16;;;26.03;64.78
77702;BME280;66868;42.708;23.404;2023-06-22T09:02:14;95617.28;;;25.99;64.52
77702;BME280;66868;42.708;23.404;2023-06-22T09:04:39;95617.03;;;26.08;65.04
77702;BME280;66868;42.708;23.404;2023-06-22T09:07:07;95617.16;;;26.15;65.76
77702;BME280;66868;42.708;23.404;2023-06-22T09:09:33;95618.13;;;26.22;65.86
77702;BME280;66868;42.708;23.404;2023-06-22T09:11:58;95611.94;;;26.23;63.74
77702;BME280;66868;42.708;23.404;2023-06-22T09:14:23;95612.75;;;26.23;63.78
77702;BME280;66868;42.708;23.404;2023-06-22T09:16:49;95615.13;;;26.33;63.24
77702;BME280;66868;42.708;23.404;2023-06-22T09:19:14;95612.91;;;26.45;63.91
77702;BME280;66868;42.708;23.404;2023-06-22T09:21:39;95595.28;;;26.40;62.70
77702;BME280;66868;42.708;23.404;2023-06-22T09:24:05;95609.09;;;26.55;63.06
77702;BME280;66868;42.708;23.404;2023-06-22T09:26:31;95604.16;;;26.60;64.31
77702;BME280;66868;42.708;23.404;2023-06-22T09:28:57;95618.97;;;26.74;63.56
77702;BME280;66868;42.708;23.404;2023-06-22T09:31:23;95607.88;;;26.80;62.91
77702;BME280;66868;42.708;23.404;2023-06-22T09:33:51;95607.88;;;26.80;60.51
77702;BME280;66868;42.708;23.404;2023-06-22T09:36:17;95622.22;;;26.76;58.03
77702;BME280;66868;42.708;23.404;2023-06-22T09:38:43;95614.47;;;26.68;57.12
77702;BME280;66868;42.708;23.404;2023-06-22T09:41:08;95628.00;;;26.87;55.58
77702;BME280;66868;42.708;23.404;2023-06-22T09:43:33;95619.91;;;26.81;56.18
77702;BME280;66868;42.708;23.404;2023-06-22T09:46:02;95601.06;;;26.79;58.20
77702;BME280;66868;42.708;23.404;2023-06-22T09:48:28;95610.28;;;27.05;58.00
77702;BME280;66868;42.708;23.404;2023-06-22T09:50:54;95615.94;;;27.23;57.88
77702;BME280;66868;42.708;23.404;2023-06-22T09:53:20;95602.56;;;27.26;57.66
77702;BME280;66868;42.708;23.404;2023-06-22T09:55:46;95575.03;;;27.17;57.54
77702;BME280;66868;42.708;23.404;2023-06-22T09:58:11;95595.81;;;27.46;57.05
77702;BME280;66868;42.708;23.404;2023-06-22T10:00:36;95603.53;;;27.40;54.30
77702;BME280;66868;42.708;23.404;2023-06-22T10:03:02;95585.53;;;27.23;54.60
77702;BME280;66868;42.708;23.404;2023-06-22T10:05:27;95586.75;;;27.42;53.86
77702;BME280;66868;42.708;23.404;2023-06-22T10:07:52;95592.59;;;27.59;54.79
77702;BME280;66868;42.708;23.404;2023-06-22T10:10:18;95595.44;;;27.64;55.50
77702;BME280;66868;42.708;23.404;2023-06-22T10:12:46;95588.06;;;27.67;56.24
77702;BME280;66868;42.708;23.404;2023-06-22T10:15:11;95596.28;;;27.86;56.75
77702;BME280;66868;42.708;23.404;2023-06-22T10:17:37;95594.88;;;27.83;54.57
77702;BME280;66868;42.708;23.404;2023-06-22T10:20:03;95584.09;;;27.86;54.48
77702;BME280;66868;42.708;23.404;2023-06-22T10:22:42;95571.63;;;27.82;55.30
77702;BME280;66868;42.708;23.404;2023-06-22T10:25:09;95590.91;;;27.87;53.34
77702;BME280;66868;42.708;23.404;2023-06-22T10:27:35;95596.16;;;27.94;53.94
77702;BME280;66868;42.708;23.404;2023-06-22T10:30:01;95588.41;;;28.15;53.35
77702;BME280;66868;42.708;23.404;2023-06-22T10:32:39;95560.97;;;27.98;52.78
77702;BME280;66868;42.708;23.404;2023-06-22T10:35:31;95589.44;;;28.42;52.67
77702;BME280;66868;42.708;23.404;2023-06-22T10:37:56;95578.69;;;28.51;52.52
77702;BME280;66868;42.708;23.404;2023-06-22T10:40:22;95580.78;;;28.63;51.58
77702;BME280;66868;42.708;23.404;2023-06-22T10:42:47;95583.75;;;28.81;51.55
77702;BME280;66868;42.708;23.404;2023-06-22T10:45:15;95565.72;;;28.86;50.79
77702;BME280;66868;42.708;23.404;2023-06-22T10:47:41;95567.19;;;28.95;51.96
77702;BME280;66868;42.708;23.404;2023-06-22T10:50:07;95572.28;;;29.10;51.80
77702;BME280;66868;42.708;23.404;2023-06-22T10:52:33;95565.56;;;29.28;52.48
77702;BME280;66868;42.708;23.404;2023-06-22T10:54:58;95565.28;;;29.45;52.61
77702;BME280;66868;42.708;23.404;2023-06-22T10:57:24;95579.38;;;29.63;53.39
77702;BME280;66868;42.708;23.404;2023-06-22T10:59:49;95561.75;;;29.72;50.72
77702;BME280;66868;42.708;23.404;2023-06-22T11:02:15;95545.66;;;29.75;50.55
77702;BME280;66868;42.708;23.404;2023-06-22T11:04:40;95563.44;;;29.99;50.62
77702;BME280;66868;42.708;23.404;2023-06-22T11:07:06;95573.50;;;30.15;51.61
77702;BME280;66868;42.708;23.404;2023-06-22T11:09:31;95563.84;;;30.29;50.00
77702;BME280;66868;42.708;23.404;2023-06-22T11:11:59;95562.47;;;30.40;49.65
77702;BME280;66868;42.708;23.404;2023-06-22T11:14:25;95571.53;;;30.57;51.81
77702;BME280;66868;42.708;23.404;2023-06-22T11:16:51;95584.00;;;30.75;50.31
77702;BME280;66868;42.708;23.404;2023-06-22T11:19:19;95557.44;;;30.71;47.32
77702;BME280;66868;42.708;23.404;2023-06-22T11:21:44;95573.97;;;30.65;46.59
77702;BME280;66868;42.708;23.404;2023-06-22T11:24:10;95571.09;;;30.93;45.98
77702;BME280;66868;42.708;23.404;2023-06-22T11:26:35;95572.69;;;31.13;45.00
77702;BME280;66868;42.708;23.404;2023-06-22T11:29:02;95560.22;;;31.16;45.50
77702;BME280;66868;42.708;23.404;2023-06-22T11:31:30;95564.53;;;31.48;46.59
77702;BME280;66868;42.708;23.404;2023-06-22T11:33:56;95535.03;;;31.72;46.45
77702;BME280;66868;42.708;23.404;2023-06-22T11:36:21;95551.91;;;32.14;45.59
77702;BME280;66868;42.708;23.404;2023-06-22T11:38:49;95563.75;;;32.48;46.28
77702;BME280;66868;42.708;23.404;2023-06-22T11:41:15;95564.72;;;32.78;46.01
77702;BME280;66868;42.708;23.404;2023-06-22T11:43:40;95552.94;;;33.06;45.54
77702;BME280;66868;42.708;23.404;2023-06-22T11:46:06;95561.00;;;33.29;43.10
77702;BME280;66868;42.708;23.404;2023-06-22T11:48:31;95555.44;;;33.37;43.71
77702;BME280;66868;42.708;23.404;2023-06-22T11:50:59;95538.06;;;33.36;43.94
77702;BME280;66868;42.708;23.404;2023-06-22T11:53:26;95541.47;;;33.55;42.01
77702;BME280;66868;42.708;23.404;2023-06-22T11:55:52;95539.44;;;33.57;40.54
77702;BME280;66868;42.708;23.404;2023-06-22T11:58:19;95555.88;;;33.70;40.56
77702;BME280;66868;42.708;23.404;2023-06-22T12:00:44;95558.50;;;33.70;42.37
77702;BME280;66868;42.708;23.404;2023-06-22T12:03:13;95550.31;;;33.60;41.51
77702;BME280;66868;42.708;23.404;2023-06-22T12:05:41;95561.38;;;33.62;41.86
77702;BME280;66868;42.708;23.404;2023-06-22T12:08:07;95557.53;;;33.65;42.40
77702;BME280;66868;42.708;23.404;2023-06-22T12:10:32;95529.38;;;33.54;42.20
77702;BME280;66868;42.708;23.404;2023-06-22T12:12:58;95531.22;;;33.35;43.23
77702;BME280;66868;42.708;23.404;2023-06-22T12:15:25;95552.38;;;33.22;43.77
77702;BME280;66868;42.708;23.404;2023-06-22T12:17:53;95545.28;;;32.86;45.64
77702;BME280;66868;42.708;23.404;2023-06-22T12:20:19;95553.22;;;32.55;46.28
77702;BME280;66868;42.708;23.404;2023-06-22T12:22:44;95553.03;;;32.25;47.10
77702;BME280;66868;42.708;23.404;2023-06-22T12:25:10;95556.38;;;32.00;47.83
77702;BME280;66868;42.708;23.404;2023-06-22T12:27:36;95539.91;;;31.62;48.32
77702;BME280;66868;42.708;23.404;2023-06-22T12:30:03;95559.69;;;31.45;48.25
77702;BME280;66868;42.708;23.404;2023-06-22T12:32:28;95555.38;;;31.12;49.86
77702;BME280;66868;42.708;23.404;2023-06-22T12:34:54;95563.88;;;30.88;51.53
77702;BME280;66868;42.708;23.404;2023-06-22T12:37:20;95545.38;;;30.57;53.93
77702;BME280;66868;42.708;23.404;2023-06-22T12:39:45;95555.22;;;30.42;54.94
77702;BME280;66868;42.708;23.404;2023-06-22T12:42:11;95574.59;;;29.80;56.03
77702;BME280;66868;42.708;23.404;2023-06-22T12:44:40;95589.97;;;28.59;60.20
77702;BME280;66868;42.708;23.404;2023-06-22T12:47:06;95581.38;;;27.58;63.43
77702;BME280;66868;42.708;23.404;2023-06-22T12:49:33;95565.06;;;27.06;62.27
77702;BME280;66868;42.708;23.404;2023-06-22T12:51:59;95582.03;;;27.02;62.51
77702;BME280;66868;42.708;23.404;2023-06-22T12:54:24;95595.41;;;27.13;65.52